Terminal Aerodrome Forecast
Issued by NWS

Home | Current Version | Previous Version | Text Only | Print | Product List | Glossary On
Versions: 1 2 3 4 5 6 7 8 9 10 11 12 13 14 15
000
FTUS43 KLSX 241720
TAFUIN
TAF
KUIN 241720Z 2418/2518 21013KT P6SM SCT040 BKN120
     FM242200 25010KT P6SM VCTS SCT050CB BKN100
     FM250100 36006KT P6SM BKN100
     FM251300 03009KT P6SM SKC=

USA.gov is the U.S. government's official web portal to all federal, state and local government web resources and services.